CheckWX is a tool to help pilots better visualize weather data.  It is not intended as a substitute for an official pre-flight weather briefing.

00:31:49 UTC

ESST METAR
Torsby Airport
Sweden
Current

42 mins ago

ESST 152350Z AUTO 29003KT 270V330 0350 R16/P2000N R34/1300D FG VV002 12/12 Q1012
Observed
Jul-15 @ 23:50 UTC
Wind
  • 290° at 3 KTS
Visibility
Flight Rules
LIFR
Conditions
Fog
Cloud Levels
  • Vertical visibility
Temperature
12°C / 54°F
Dewpoint
12°C / 54°F
Humidity
100%
Altimeter
29.88" Hg
Pressure
1011.92 hPa
Previous

1 hour ago

ESST 152320Z AUTO 24003KT 0250 R16/0700N R34/P2000N FG BKN002/// OVC140/// 13/12 Q1012
Observed
Jul-15 @ 23:20 UTC
Wind
  • 240° at 3 KTS
Visibility
257 meters
Flight Rules
LIFR
Conditions
Fog
Cloud Levels
  • Broken at 200' AGL
  • Overcast at 14,000' AGL
Temperature
13°C / 55°F
Dewpoint
12°C / 54°F
Humidity
94%
Altimeter
29.88" Hg
Pressure
1011.92 hPa
Previous

2 hours ago

ESST 152250Z AUTO VRB02KT 9999 SCT003/// OVC140/// 13/13 Q1012
Observed
Jul-15 @ 22:50 UTC
Wind
  • Variable at 2 KTS
Visibility
10,000+ meters
Flight Rules
VFR
Cloud Levels
  • Scattered at 300' AGL
  • Overcast at 14,000' AGL
Temperature
13°C / 55°F
Dewpoint
13°C / 55°F
Humidity
100%
Altimeter
29.88" Hg
Pressure
1011.92 hPa